createdAt,value
2018-12-17T00:02:00.301Z,2.23
2018-12-17T00:06:58.713Z,1.43
2018-12-17T00:09:24.797Z,1.07
2018-12-17T00:11:50.845Z,1.93
2018-12-17T00:14:17.221Z,1.77
2018-12-17T00:16:43.935Z,2.03
2018-12-17T00:19:10.005Z,1.67
2018-12-17T00:21:36.163Z,3.13
2018-12-17T00:24:02.190Z,1.40
2018-12-17T00:26:28.256Z,1.97
2018-12-17T00:28:54.636Z,3.57
2018-12-17T00:31:20.688Z,2.13
2018-12-17T00:33:46.753Z,1.73
2018-12-17T00:36:13.185Z,2.30
2018-12-17T00:38:39.225Z,1.23
2018-12-17T00:41:05.257Z,2.73
2018-12-17T00:43:31.731Z,1.70
2018-12-17T00:45:57.775Z,2.67
2018-12-17T00:48:23.915Z,1.97
2018-12-17T00:50:50.064Z,1.83
2018-12-17T00:53:16.135Z,1.50
2018-12-17T00:55:42.234Z,1.60
2018-12-17T00:58:14.996Z,1.93
2018-12-17T01:00:36.463Z,2.03
2018-12-17T01:03:02.469Z,1.90
2018-12-17T01:05:28.713Z,1.70
2018-12-17T01:07:54.750Z,1.67
2018-12-17T01:10:20.797Z,2.43
2018-12-17T01:12:47.129Z,2.37
2018-12-17T01:15:13.287Z,2.37
2018-12-17T01:17:39.324Z,1.23
2018-12-17T01:20:05.967Z,2.00
2018-12-17T01:22:32.032Z,1.37
2018-12-17T01:24:58.040Z,1.47
2018-12-17T01:27:24.310Z,1.97
2018-12-17T01:29:50.367Z,1.53
2018-12-17T01:32:16.401Z,1.80
2018-12-17T01:34:42.627Z,1.10
2018-12-17T01:37:08.681Z,1.70
2018-12-17T01:39:34.715Z,1.60
2018-12-17T01:42:00.916Z,1.77
2018-12-17T01:44:26.991Z,2.90
2018-12-17T01:46:53.034Z,1.30
2018-12-17T01:49:19.383Z,2.10
2018-12-17T01:51:45.480Z,1.67
2018-12-17T01:54:11.510Z,3.00
2018-12-17T01:56:37.842Z,1.50
2018-12-17T01:59:04.002Z,2.03
2018-12-17T02:01:30.201Z,0.93
2018-12-17T02:03:56.472Z,1.70
2018-12-17T02:06:22.559Z,1.37
2018-12-17T02:08:48.734Z,1.70
2018-12-17T02:11:15.040Z,2.67
2018-12-17T02:13:41.230Z,1.70
2018-12-17T02:16:07.581Z,1.93
2018-12-17T02:18:33.700Z,2.07
2018-12-17T02:20:59.740Z,1.50
2018-12-17T02:23:25.760Z,1.57
2018-12-17T02:25:52.018Z,1.07
2018-12-17T02:28:18.088Z,2.10
2018-12-17T02:30:44.115Z,2.30
2018-12-17T02:33:10.436Z,2.03
2018-12-17T02:35:36.481Z,1.63
2018-12-17T02:38:02.566Z,0.90
2018-12-17T02:40:28.876Z,2.53
2018-12-17T02:43:01.775Z,1.73
2018-12-17T02:45:27.811Z,2.37
2018-12-17T02:47:53.996Z,2.03
2018-12-17T02:50:20.048Z,1.53
2018-12-17T02:52:46.089Z,1.50
2018-12-17T02:55:12.282Z,1.70
2018-12-17T02:57:38.344Z,2.73
2018-12-17T03:00:06.338Z,2.67
2018-12-17T03:02:32.572Z,1.70
2018-12-17T03:04:58.646Z,2.43
2018-12-17T03:07:24.731Z,2.40
2018-12-17T03:09:51.087Z,2.80
2018-12-17T03:12:17.126Z,1.33
2018-12-17T03:14:43.147Z,1.40
2018-12-17T03:17:09.556Z,1.50
2018-12-17T03:19:35.589Z,2.03
2018-12-17T03:22:01.759Z,1.40
2018-12-17T03:24:28.026Z,1.03
2018-12-17T03:26:54.057Z,2.17
2018-12-17T03:29:20.089Z,2.13
2018-12-17T03:31:46.765Z,2.43
2018-12-17T03:34:12.790Z,2.60
2018-12-17T03:36:38.843Z,2.63
2018-12-17T03:39:05.363Z,2.10
2018-12-17T03:41:31.512Z,1.40
2018-12-17T03:43:57.521Z,1.30
2018-12-17T03:46:23.791Z,1.97
2018-12-17T03:48:49.850Z,1.87
2018-12-17T03:51:15.873Z,2.07
2018-12-17T03:53:42.105Z,1.50
2018-12-17T03:56:08.115Z,2.13
2018-12-17T03:58:34.156Z,1.80
2018-12-17T04:01:00.363Z,2.40
2018-12-17T04:03:26.413Z,1.50
2018-12-17T04:05:52.451Z,1.27
2018-12-17T04:08:18.779Z,1.47
2018-12-17T04:10:44.848Z,1.33
2018-12-17T04:13:11.128Z,1.47
2018-12-17T04:15:37.425Z,1.07
2018-12-17T04:18:03.848Z,2.33
2018-12-17T04:20:29.885Z,1.70
2018-12-17T04:22:56.116Z,1.80
2018-12-17T04:25:22.184Z,1.40
2018-12-17T04:27:48.251Z,2.80
2018-12-17T04:30:14.369Z,1.73
2018-12-17T04:32:40.407Z,2.07
2018-12-17T04:35:06.450Z,1.27
2018-12-17T04:37:32.721Z,2.13
2018-12-17T04:39:58.730Z,2.57
2018-12-17T04:42:24.826Z,1.97
2018-12-17T04:44:51.045Z,2.20
2018-12-17T04:47:17.078Z,1.83
2018-12-17T04:49:43.127Z,1.87
2018-12-17T04:52:09.334Z,1.90
2018-12-17T04:54:35.509Z,2.10
2018-12-17T04:57:01.579Z,1.57
2018-12-17T04:59:27.867Z,1.47
2018-12-17T05:01:54.495Z,2.57
2018-12-17T05:04:20.565Z,2.13
2018-12-17T05:06:46.773Z,1.67
2018-12-17T05:09:12.842Z,2.40
2018-12-17T05:11:38.826Z,1.43
2018-12-17T05:14:05.118Z,1.67
2018-12-17T05:16:31.180Z,1.77
2018-12-17T05:18:57.275Z,1.77
2018-12-17T05:21:23.687Z,1.93
2018-12-17T05:23:49.777Z,1.10
2018-12-17T05:26:16.081Z,1.63
2018-12-17T05:28:42.224Z,4.00
2018-12-17T05:31:08.367Z,2.50
2018-12-17T05:33:34.518Z,2.43
2018-12-17T05:36:00.915Z,1.67
2018-12-17T05:38:27.138Z,2.47
2018-12-17T05:40:53.417Z,2.03
2018-12-17T05:43:19.958Z,2.27
2018-12-17T05:45:46.025Z,2.23
2018-12-17T05:48:12.057Z,2.57
2018-12-17T05:50:38.319Z,3.53
2018-12-17T05:53:04.410Z,3.00
2018-12-17T05:55:30.478Z,2.63
2018-12-17T05:57:56.641Z,3.37
2018-12-17T06:00:23.914Z,2.77
2018-12-17T06:02:49.934Z,2.80
2018-12-17T06:05:16.268Z,2.40
2018-12-17T06:07:42.346Z,2.93
2018-12-17T06:10:08.446Z,3.10
2018-12-17T06:12:34.664Z,2.23
2018-12-17T06:15:00.755Z,3.17
2018-12-17T06:17:26.826Z,2.00
2018-12-17T06:19:53.077Z,1.63
2018-12-17T06:22:19.101Z,1.70
2018-12-17T06:24:45.432Z,2.73
2018-12-17T06:27:11.544Z,3.10
2018-12-17T06:29:37.546Z,2.47
2018-12-17T06:32:03.612Z,2.63
2018-12-17T06:34:29.757Z,3.27
2018-12-17T06:36:55.820Z,2.83
2018-12-17T06:39:22.058Z,2.50
2018-12-17T06:41:48.302Z,1.20
2018-12-17T06:44:14.419Z,3.07
2018-12-17T06:46:40.482Z,2.00
2018-12-17T06:49:06.718Z,1.40
2018-12-17T06:51:32.896Z,3.20
2018-12-17T06:53:59.010Z,2.27
2018-12-17T06:56:25.271Z,3.40
2018-12-17T06:58:51.352Z,2.93
2018-12-17T07:01:17.416Z,4.03
2018-12-17T07:03:43.674Z,2.03
2018-12-17T07:06:09.753Z,2.20
2018-12-17T07:08:35.846Z,2.57
2018-12-17T07:11:02.408Z,3.07
2018-12-17T07:13:28.480Z,4.23
2018-12-17T07:15:54.545Z,3.93
2018-12-17T07:18:20.824Z,2.27
2018-12-17T07:20:47.093Z,4.13
2018-12-17T07:26:09.531Z,3.93
2018-12-17T07:28:35.757Z,3.90
2018-12-17T07:31:01.831Z,3.70
2018-12-17T07:33:28.862Z,3.27
2018-12-17T07:35:55.503Z,4.17
2018-12-17T07:38:21.547Z,4.23
2018-12-17T07:40:47.761Z,4.17
2018-12-17T07:43:13.950Z,3.67
2018-12-17T07:45:39.979Z,3.77
2018-12-17T07:48:06.063Z,2.63
2018-12-17T07:50:32.293Z,4.10
2018-12-17T07:52:58.361Z,5.10
2018-12-17T07:55:24.403Z,4.07
2018-12-17T07:57:50.765Z,3.63
2018-12-17T08:00:16.859Z,3.57
2018-12-17T08:02:42.900Z,4.70
2018-12-17T08:05:09.510Z,5.47
2018-12-17T08:07:35.532Z,5.13
2018-12-17T08:10:01.615Z,4.03
2018-12-17T08:12:27.882Z,3.37
2018-12-17T08:14:53.961Z,4.63
2018-12-17T08:17:20.063Z,4.10
2018-12-17T08:19:46.336Z,4.17
2018-12-17T08:22:12.527Z,6.80
2018-12-17T08:24:38.576Z,3.53
2018-12-17T08:27:04.788Z,4.00
2018-12-17T08:29:30.850Z,6.73
2018-12-17T08:31:56.895Z,4.03
2018-12-17T08:34:23.161Z,4.13
2018-12-17T08:36:49.238Z,4.70
2018-12-17T08:39:15.389Z,4.20
2018-12-17T08:41:41.655Z,6.03
2018-12-17T08:44:07.720Z,3.13
2018-12-17T08:46:33.738Z,3.40
2018-12-17T08:49:00.042Z,4.87
2018-12-17T08:51:26.104Z,3.77
2018-12-17T08:53:53.089Z,3.10
2018-12-17T08:59:15.725Z,4.63
2018-12-17T09:01:42.258Z,3.10
2018-12-17T09:04:08.316Z,6.93
2018-12-17T09:06:34.347Z,4.30
2018-12-17T09:09:00.608Z,3.00
2018-12-17T09:11:26.909Z,3.57
2018-12-17T09:13:52.978Z,4.53
2018-12-17T09:16:19.285Z,6.93
2018-12-17T09:18:45.380Z,5.77
2018-12-17T09:21:11.444Z,5.80
2018-12-17T09:23:37.910Z,3.73
2018-12-17T09:26:04.089Z,5.73
2018-12-17T09:28:30.154Z,4.27
2018-12-17T09:30:56.524Z,4.57
2018-12-17T09:33:22.541Z,6.40
2018-12-17T09:35:48.647Z,6.43
2018-12-17T09:38:14.944Z,5.87
2018-12-17T09:40:41.110Z,6.03
2018-12-17T09:43:07.429Z,5.07
2018-12-17T09:45:33.665Z,6.03
2018-12-17T09:47:59.669Z,5.63
2018-12-17T09:50:25.754Z,6.63
2018-12-17T09:52:52.667Z,5.73
2018-12-17T09:55:18.779Z,4.40
2018-12-17T09:57:44.819Z,6.57
2018-12-17T10:00:11.258Z,5.00
2018-12-17T10:02:37.282Z,6.40
2018-12-17T10:05:03.764Z,5.47
2018-12-17T10:07:30.622Z,5.37
2018-12-17T10:09:56.731Z,6.13
2018-12-17T10:12:22.776Z,5.60
2018-12-17T10:14:48.984Z,7.33
2018-12-17T10:17:15.038Z,5.77
2018-12-17T10:19:41.119Z,5.13
2018-12-17T10:22:08.197Z,4.30
2018-12-17T10:24:34.616Z,4.97
2018-12-17T10:27:00.670Z,5.63
2018-12-17T10:29:26.951Z,5.40
2018-12-17T10:31:52.984Z,5.10
2018-12-17T10:34:20.034Z,5.93
2018-12-17T10:36:46.422Z,5.90
2018-12-17T10:39:12.492Z,5.77
2018-12-17T10:41:38.716Z,4.10
2018-12-17T10:46:57.595Z,7.60
2018-12-17T10:49:23.935Z,6.23
2018-12-17T10:51:50.860Z,4.93
2018-12-17T10:54:17.211Z,5.23
2018-12-17T10:56:43.533Z,4.53
2018-12-17T10:59:09.586Z,8.27
2018-12-17T11:01:41.813Z,9.30
2018-12-17T11:04:10.073Z,5.87
2018-12-17T11:06:36.124Z,9.27
2018-12-17T11:09:06.230Z,7.67
2018-12-17T11:11:32.564Z,9.97
2018-12-17T11:13:59.436Z,5.80
2018-12-17T11:16:25.536Z,7.13
2018-12-17T11:21:44.628Z,6.63
2018-12-17T11:24:12.011Z,5.50
2018-12-17T11:26:38.325Z,7.10
2018-12-17T11:29:04.413Z,6.17
2018-12-17T11:31:31.252Z,5.23
2018-12-17T11:33:57.371Z,5.50
2018-12-17T11:36:23.427Z,6.50
2018-12-17T11:38:49.859Z,6.77
2018-12-17T11:41:15.937Z,6.30
2018-12-17T11:43:44.012Z,6.70
2018-12-17T11:46:10.367Z,7.30
2018-12-17T11:48:36.566Z,6.90
2018-12-17T11:51:02.624Z,9.10
2018-12-17T11:53:28.977Z,10.43
2018-12-17T11:55:55.069Z,6.97
2018-12-17T11:58:21.312Z,7.00
2018-12-17T12:00:53.628Z,8.80
2018-12-17T12:03:16.614Z,6.73
2018-12-17T12:05:42.744Z,7.53
2018-12-17T12:08:09.017Z,9.33
2018-12-17T12:10:35.095Z,6.67
2018-12-17T12:13:01.201Z,6.13
2018-12-17T12:15:27.462Z,6.33
2018-12-17T12:17:53.528Z,6.83
2018-12-17T12:20:19.596Z,6.37
2018-12-17T12:22:45.947Z,7.77
2018-12-17T12:25:12.031Z,8.07
2018-12-17T12:27:38.841Z,6.70
2018-12-17T12:30:07.812Z,7.47
2018-12-17T12:32:34.004Z,7.70
2018-12-17T12:35:00.447Z,9.00
2018-12-17T12:37:26.800Z,8.77
2018-12-17T12:39:52.829Z,8.03
2018-12-17T12:42:18.929Z,6.23
2018-12-17T12:44:45.155Z,5.97
2018-12-17T12:47:11.217Z,6.40
2018-12-17T12:49:37.261Z,7.07
2018-12-17T12:52:03.590Z,6.10
2018-12-17T12:54:29.662Z,6.23
2018-12-17T12:56:55.666Z,6.17
2018-12-17T12:59:21.856Z,5.60
2018-12-17T13:01:47.908Z,5.57
2018-12-17T13:04:14.010Z,7.00
2018-12-17T13:06:40.306Z,6.93
2018-12-17T13:09:06.661Z,7.10
2018-12-17T13:11:32.803Z,6.17
2018-12-17T13:13:59.033Z,6.27
2018-12-17T13:16:25.095Z,8.93
2018-12-17T13:18:51.233Z,6.77
2018-12-17T13:21:18.964Z,7.90
2018-12-17T13:23:45.039Z,7.33
2018-12-17T13:26:11.171Z,8.90
2018-12-17T13:28:39.487Z,5.30
2018-12-17T13:31:05.727Z,7.33
2018-12-17T13:33:31.771Z,6.40
2018-12-17T13:35:58.002Z,5.30
2018-12-17T13:38:24.039Z,4.27
2018-12-17T13:40:50.224Z,5.33
2018-12-17T13:43:16.431Z,5.43
2018-12-17T13:45:42.507Z,5.63
2018-12-17T13:48:08.648Z,6.17
2018-12-17T13:50:42.357Z,5.33
2018-12-17T13:53:14.302Z,5.17
2018-12-17T13:55:40.608Z,6.80
2018-12-17T13:58:06.904Z,5.87
2018-12-17T14:00:32.965Z,6.77
2018-12-17T14:02:59.083Z,5.17
2018-12-17T14:05:25.286Z,5.80
2018-12-17T14:07:51.333Z,4.93
2018-12-17T14:10:23.395Z,5.73
2018-12-17T14:12:49.605Z,6.23
2018-12-17T14:15:16.837Z,6.63
2018-12-17T14:17:45.161Z,6.03
2018-12-17T14:20:17.484Z,6.30
2018-12-17T14:22:43.649Z,5.27
2018-12-17T14:25:09.721Z,6.43
2018-12-17T14:27:36.021Z,4.77
2018-12-17T14:30:03.532Z,5.93
2018-12-17T14:32:29.609Z,7.30
2018-12-17T14:34:55.946Z,6.70
2018-12-17T14:37:22.199Z,6.77
2018-12-17T14:39:49.500Z,5.73
2018-12-17T14:42:15.744Z,5.63
2018-12-17T14:44:41.831Z,7.23
2018-12-17T14:47:07.859Z,6.63
2018-12-17T14:49:34.001Z,5.00
2018-12-17T14:52:00.056Z,6.47
2018-12-17T14:54:26.154Z,6.93
2018-12-17T14:56:52.538Z,5.40
2018-12-17T14:59:18.566Z,5.67
2018-12-17T15:01:44.698Z,7.13
2018-12-17T15:04:10.987Z,7.13
2018-12-17T15:06:37.101Z,5.77
2018-12-17T15:09:05.400Z,5.80
2018-12-17T15:11:31.811Z,6.03
2018-12-17T15:13:57.882Z,7.90
2018-12-17T15:16:23.957Z,7.33
2018-12-17T15:18:50.187Z,7.60
2018-12-17T15:21:16.281Z,6.57
2018-12-17T15:23:42.396Z,6.60
2018-12-17T15:26:08.624Z,6.57
2018-12-17T15:28:34.733Z,6.87
2018-12-17T15:31:01.078Z,6.60
2018-12-17T15:33:27.530Z,6.70
2018-12-17T15:35:53.561Z,6.33
2018-12-17T15:38:19.613Z,6.73
2018-12-17T15:40:45.932Z,7.43
2018-12-17T15:43:11.980Z,4.63
2018-12-17T15:45:38.061Z,5.23
2018-12-17T15:48:04.323Z,6.47
2018-12-17T15:50:30.405Z,8.40
2018-12-17T15:52:56.475Z,6.67
2018-12-17T15:55:22.783Z,8.17
2018-12-17T15:57:49.372Z,7.93
2018-12-17T16:00:15.501Z,7.87
2018-12-17T16:02:41.990Z,5.67
2018-12-17T16:05:08.052Z,7.43
2018-12-17T16:07:34.146Z,7.70
2018-12-17T16:10:00.601Z,7.37
2018-12-17T16:12:26.922Z,6.33
2018-12-17T16:14:52.994Z,6.07
2018-12-17T16:17:19.137Z,6.43
2018-12-17T16:19:45.206Z,6.37
2018-12-17T16:22:11.380Z,5.57
2018-12-17T16:24:37.759Z,7.77
2018-12-17T16:27:03.789Z,6.33
2018-12-17T16:29:29.849Z,7.97
2018-12-17T16:31:57.473Z,5.23
2018-12-17T16:34:23.985Z,8.93
2018-12-17T16:36:50.868Z,6.90
2018-12-17T16:39:17.055Z,8.57
2018-12-17T16:41:43.143Z,7.67
2018-12-17T16:44:09.264Z,7.90
2018-12-17T16:46:35.796Z,7.23
2018-12-17T16:49:01.868Z,6.47
2018-12-17T16:51:28.084Z,6.90
2018-12-17T16:53:54.323Z,7.70
2018-12-17T16:56:20.526Z,6.90
2018-12-17T16:58:46.586Z,5.40
2018-12-17T17:01:12.976Z,7.57
2018-12-17T17:03:38.974Z,6.33
2018-12-17T17:06:05.188Z,8.17
2018-12-17T17:08:31.454Z,6.53
2018-12-17T17:10:57.497Z,7.67
2018-12-17T17:13:23.570Z,6.63
2018-12-17T17:15:49.760Z,8.07
2018-12-17T17:18:15.883Z,9.33
2018-12-17T17:20:42.013Z,8.20
2018-12-17T17:23:08.330Z,8.23
2018-12-17T17:25:34.408Z,8.33
2018-12-17T17:28:00.484Z,7.00
2018-12-17T17:30:26.766Z,7.77
2018-12-17T17:32:52.970Z,7.40
2018-12-17T17:35:19.017Z,10.17
2018-12-17T17:37:45.272Z,6.40
2018-12-17T17:40:11.320Z,6.07
2018-12-17T17:42:37.477Z,6.10
2018-12-17T17:45:04.144Z,6.90
2018-12-17T17:47:30.258Z,8.23
2018-12-17T17:49:56.330Z,8.00
2018-12-17T17:52:22.503Z,7.43
2018-12-17T17:54:48.628Z,7.80
2018-12-17T17:57:14.719Z,5.60
2018-12-17T17:59:40.945Z,7.67
2018-12-17T18:02:06.983Z,7.80
2018-12-17T18:04:33.145Z,6.77
2018-12-17T18:06:59.377Z,7.93
2018-12-17T18:09:25.670Z,6.33
2018-12-17T18:11:51.862Z,8.73
2018-12-17T18:14:18.015Z,11.07
2018-12-17T18:16:44.061Z,6.80
2018-12-17T18:19:10.224Z,9.27
2018-12-17T18:21:36.436Z,8.17
2018-12-17T18:24:02.663Z,11.07
2018-12-17T18:26:35.767Z,7.53
2018-12-17T18:29:02.759Z,7.10
2018-12-17T18:31:29.152Z,7.03
2018-12-17T18:33:55.327Z,8.70
2018-12-17T18:36:21.509Z,9.77
2018-12-17T18:38:47.742Z,10.63
2018-12-17T18:41:13.812Z,8.87
2018-12-17T18:43:39.977Z,9.10
2018-12-17T18:46:06.119Z,9.67
2018-12-17T18:48:32.136Z,8.87
2018-12-17T18:50:58.320Z,11.33
2018-12-17T18:53:24.395Z,9.87
2018-12-17T18:55:50.482Z,11.57
2018-12-17T18:58:16.657Z,10.27
2018-12-17T19:00:42.861Z,10.17
2018-12-17T19:03:08.996Z,8.30
2018-12-17T19:05:35.256Z,9.83
2018-12-17T19:08:01.344Z,9.70
2018-12-17T19:10:29.448Z,9.43
2018-12-17T19:12:55.672Z,10.63
2018-12-17T19:15:21.780Z,10.87
2018-12-17T19:17:47.860Z,9.53
2018-12-17T19:20:14.138Z,9.33
2018-12-17T19:22:40.215Z,9.27
2018-12-17T19:25:06.476Z,7.17
2018-12-17T19:27:32.736Z,9.70
2018-12-17T19:29:58.798Z,12.33
2018-12-17T19:32:24.941Z,9.63
2018-12-17T19:34:51.441Z,13.47
2018-12-17T19:37:17.494Z,10.90
2018-12-17T19:39:43.560Z,10.67
2018-12-17T19:42:09.818Z,14.10
2018-12-17T19:44:35.884Z,10.17
2018-12-17T19:47:01.978Z,10.43
2018-12-17T19:49:28.136Z,11.27
2018-12-17T19:51:54.184Z,11.60
2018-12-17T19:54:20.278Z,11.83
2018-12-17T19:56:46.498Z,7.40
2018-12-17T19:59:12.516Z,10.50
2018-12-17T20:01:38.601Z,9.97
2018-12-17T20:04:04.861Z,11.03
2018-12-17T20:06:30.896Z,8.87
2018-12-17T20:08:56.962Z,12.40
2018-12-17T20:11:29.184Z,11.60
2018-12-17T20:13:55.223Z,8.77
2018-12-17T20:16:21.589Z,11.87
2018-12-17T20:18:54.706Z,11.13
2018-12-17T20:21:20.853Z,12.40
2018-12-17T20:23:46.923Z,11.43
2018-12-17T20:26:13.174Z,8.97
2018-12-17T20:28:39.217Z,11.57
2018-12-17T20:31:05.354Z,9.93
2018-12-17T20:33:31.598Z,10.27
2018-12-17T20:35:57.733Z,10.93
2018-12-17T20:38:23.802Z,12.97
2018-12-17T20:40:49.990Z,10.83
2018-12-17T20:43:16.086Z,10.33
2018-12-17T20:45:42.216Z,8.93
2018-12-17T20:48:08.567Z,10.63
2018-12-17T20:50:34.655Z,12.60
2018-12-17T20:53:00.726Z,10.33
2018-12-17T20:55:30.532Z,14.03
2018-12-17T20:57:54.992Z,10.30
2018-12-17T21:00:21.103Z,11.70
2018-12-17T21:05:43.445Z,11.47
2018-12-17T21:08:09.670Z,12.77
2018-12-17T21:10:35.738Z,10.63
2018-12-17T21:13:01.852Z,10.50
2018-12-17T21:15:28.008Z,10.10
2018-12-17T21:17:54.070Z,11.30
2018-12-17T21:20:20.127Z,9.50
2018-12-17T21:22:46.468Z,10.47
2018-12-17T21:25:12.527Z,10.57
2018-12-17T21:27:38.584Z,10.43
2018-12-17T21:30:05.926Z,9.73
2018-12-17T21:32:31.981Z,9.33
2018-12-17T21:34:58.079Z,9.57
2018-12-17T21:37:24.352Z,8.20
2018-12-17T21:39:50.431Z,10.73
2018-12-17T21:42:16.561Z,12.50
2018-12-17T21:44:42.775Z,10.90
2018-12-17T21:47:08.879Z,10.50
2018-12-17T21:49:34.939Z,9.97
2018-12-17T21:52:01.241Z,9.97
2018-12-17T21:54:27.292Z,9.57
2018-12-17T21:56:53.491Z,10.43
2018-12-17T21:59:19.694Z,9.33
2018-12-17T22:01:45.795Z,9.03
2018-12-17T22:04:11.855Z,12.00
2018-12-17T22:06:38.133Z,9.53
2018-12-17T22:09:05.305Z,12.17
2018-12-17T22:11:31.372Z,9.90
2018-12-17T22:13:57.565Z,11.17
2018-12-17T22:16:23.600Z,10.77
2018-12-17T22:18:49.698Z,11.53
2018-12-17T22:21:15.894Z,11.77
2018-12-17T22:23:41.905Z,9.37
2018-12-17T22:26:07.968Z,11.07
2018-12-17T22:28:34.258Z,10.97
2018-12-17T22:34:29.292Z,11.53
2018-12-17T22:36:55.394Z,10.23
2018-12-17T22:39:22.675Z,11.47
2018-12-17T22:41:48.863Z,11.27
2018-12-17T22:44:14.916Z,8.43
2018-12-17T22:46:40.972Z,11.03
2018-12-17T22:49:07.273Z,10.73
2018-12-17T22:51:33.343Z,10.90
2018-12-17T22:53:59.383Z,10.53
2018-12-17T22:56:25.702Z,12.10
2018-12-17T22:58:51.730Z,10.00
2018-12-17T23:01:17.788Z,13.73
2018-12-17T23:03:44.101Z,12.37
2018-12-17T23:06:10.117Z,11.53
2018-12-17T23:08:38.185Z,9.60
2018-12-17T23:11:16.510Z,10.77
2018-12-17T23:13:54.622Z,10.67
2018-12-17T23:16:33.144Z,10.33
2018-12-17T23:18:59.016Z,13.60
2018-12-17T23:21:25.036Z,13.20
2018-12-17T23:23:51.266Z,9.50
2018-12-17T23:26:17.370Z,12.17
2018-12-17T23:28:43.425Z,10.60
2018-12-17T23:31:09.717Z,11.40
2018-12-17T23:36:12.127Z,9.43
2018-12-17T23:38:38.156Z,10.90
2018-12-17T23:41:04.406Z,9.80
2018-12-17T23:43:30.670Z,9.57
2018-12-17T23:45:56.700Z,9.17
2018-12-17T23:48:22.784Z,9.97
2018-12-17T23:50:49.060Z,11.13
2018-12-17T23:53:15.277Z,10.27
2018-12-17T23:55:41.320Z,10.17
2018-12-17T23:58:07.668Z,9.17
